createdAt,value
2024-03-10T00:00:11.606Z,7.6
2024-03-10T00:01:21.872Z,7.6
2024-03-10T00:02:26.887Z,7.6
2024-03-10T00:03:31.741Z,7.6
2024-03-10T00:04:36.690Z,7.6
2024-03-10T00:05:41.642Z,7.6
2024-03-10T00:06:46.519Z,7.6
2024-03-10T00:07:51.614Z,7.6
2024-03-10T00:08:59.132Z,7.6
2024-03-10T00:10:04.192Z,7.6
2024-03-10T00:11:09.216Z,7.6
2024-03-10T00:12:16.849Z,7.6
2024-03-10T00:13:21.659Z,7.6
2024-03-10T00:14:26.427Z,7.5
2024-03-10T00:15:31.206Z,7.5
2024-03-10T00:16:35.952Z,7.5
2024-03-10T00:17:40.722Z,7.5
2024-03-10T00:18:45.446Z,7.5
2024-03-10T00:19:50.152Z,7.5
2024-03-10T00:20:55.027Z,7.6
2024-03-10T00:21:59.791Z,7.6
2024-03-10T00:23:04.553Z,7.6
2024-03-10T00:24:09.288Z,7.6
2024-03-10T00:25:14.017Z,7.6
2024-03-10T00:26:18.786Z,7.6
2024-03-10T00:27:23.473Z,7.6
2024-03-10T00:28:28.358Z,7.6
2024-03-10T00:29:33.084Z,7.6
2024-03-10T00:30:37.789Z,7.6
2024-03-10T00:31:42.516Z,7.6
2024-03-10T00:32:47.274Z,7.6
2024-03-10T00:33:51.979Z,7.6
2024-03-10T00:34:56.817Z,7.6
2024-03-10T00:36:01.641Z,7.6
2024-03-10T00:37:06.452Z,7.6
2024-03-10T00:38:11.303Z,7.6
2024-03-10T00:39:15.984Z,7.6
2024-03-10T00:40:20.746Z,7.6
2024-03-10T00:41:25.484Z,7.6
2024-03-10T00:42:30.228Z,7.6
2024-03-10T00:43:35.095Z,7.6
2024-03-10T00:44:39.824Z,7.6
2024-03-10T00:45:44.549Z,7.5
2024-03-10T00:46:49.355Z,7.5
2024-03-10T00:47:54.278Z,7.5
2024-03-10T00:48:58.939Z,7.6
2024-03-10T00:50:03.763Z,7.6
2024-03-10T00:51:11.373Z,7.6
2024-03-10T00:52:16.089Z,7.6
2024-03-10T00:53:21.031Z,7.6
2024-03-10T00:54:25.760Z,7.6
2024-03-10T00:55:30.518Z,7.6
2024-03-10T00:56:35.199Z,7.6
2024-03-10T00:57:40.000Z,7.6
2024-03-10T00:58:44.815Z,7.6
2024-03-10T00:59:49.452Z,7.6
2024-03-10T01:00:54.172Z,7.6
2024-03-10T01:01:59.003Z,7.6
2024-03-10T01:03:03.767Z,7.6
2024-03-10T01:04:08.512Z,7.6
2024-03-10T01:05:13.411Z,7.6
2024-03-10T01:06:18.142Z,7.6
2024-03-10T01:07:22.895Z,7.6
2024-03-10T01:08:27.736Z,7.6
2024-03-10T01:09:32.316Z,7.6
2024-03-10T01:10:39.595Z,7.6
2024-03-10T01:11:44.613Z,7.6
2024-03-10T01:12:52.309Z,7.6
2024-03-10T01:13:57.144Z,7.6
2024-03-10T01:15:01.807Z,7.6
2024-03-10T01:16:06.672Z,7.6
2024-03-10T01:17:11.413Z,7.6
2024-03-10T01:18:16.199Z,7.6
2024-03-10T01:19:20.877Z,7.6
2024-03-10T01:20:25.613Z,7.5
2024-03-10T01:21:30.350Z,7.5
2024-03-10T01:22:35.183Z,7.5
2024-03-10T01:23:42.739Z,7.5
2024-03-10T01:24:47.464Z,7.5
2024-03-10T01:25:52.229Z,7.5
2024-03-10T01:26:57.027Z,7.5
2024-03-10T01:28:01.753Z,7.5
2024-03-10T01:29:06.668Z,7.5
2024-03-10T01:30:11.320Z,7.5
2024-03-10T01:31:16.140Z,7.5
2024-03-10T01:32:20.917Z,7.5
2024-03-10T01:33:25.715Z,7.5
2024-03-10T01:34:30.431Z,7.4
2024-03-10T01:35:35.272Z,7.4
2024-03-10T01:36:40.101Z,7.4
2024-03-10T01:37:44.848Z,7.4
2024-03-10T01:38:49.560Z,7.4
2024-03-10T01:39:54.350Z,7.4
2024-03-10T01:40:59.230Z,7.4
2024-03-10T01:42:03.984Z,7.4
2024-03-10T01:43:08.664Z,7.4
2024-03-10T01:44:16.451Z,7.4
2024-03-10T01:45:21.133Z,7.4
2024-03-10T01:46:25.876Z,7.4
2024-03-10T01:47:30.652Z,7.4
2024-03-10T01:48:35.333Z,7.4
2024-03-10T01:49:40.036Z,7.4
2024-03-10T01:50:44.738Z,7.4
2024-03-10T01:51:49.615Z,7.4
2024-03-10T01:52:54.355Z,7.3
2024-03-10T01:53:59.062Z,7.3
2024-03-10T01:55:03.886Z,7.3
2024-03-10T01:56:08.996Z,7.3
2024-03-10T01:57:16.624Z,7.3
2024-03-10T01:58:21.515Z,7.3
2024-03-10T01:59:26.470Z,7.3
2024-03-10T02:00:33.846Z,7.3
2024-03-10T02:01:38.717Z,7.3
2024-03-10T02:02:46.291Z,7.2
2024-03-10T02:03:51.077Z,7.2
2024-03-10T02:04:55.907Z,7.2
2024-03-10T02:06:00.858Z,7.2
2024-03-10T02:07:05.685Z,7.2
2024-03-10T02:08:10.593Z,7.2
2024-03-10T02:09:15.298Z,7.1
2024-03-10T02:10:22.755Z,7.1
2024-03-10T02:11:27.618Z,7.1
2024-03-10T02:12:35.075Z,7.1
2024-03-10T02:13:39.817Z,7.1
2024-03-10T02:14:47.245Z,7.1
2024-03-10T02:15:59.803Z,7.1
2024-03-10T02:17:07.353Z,7.1
2024-03-10T02:18:12.115Z,7.1
2024-03-10T02:19:17.035Z,7.1
2024-03-10T02:20:22.312Z,7.1
2024-03-10T02:21:26.523Z,7.1
2024-03-10T02:22:31.395Z,7.1
2024-03-10T02:23:36.141Z,7.1
2024-03-10T02:24:49.044Z,7.1
2024-03-10T02:25:53.856Z,7
2024-03-10T02:26:58.603Z,7
2024-03-10T02:28:03.378Z,7
2024-03-10T02:29:10.752Z,7
2024-03-10T02:30:20.407Z,7
2024-03-10T02:31:32.709Z,7
2024-03-10T02:32:42.410Z,6.9
2024-03-10T02:33:52.058Z,6.9
2024-03-10T02:35:01.694Z,6.8
2024-03-10T02:36:11.727Z,6.8
2024-03-10T02:37:21.426Z,6.8
2024-03-10T02:38:31.134Z,6.8
2024-03-10T02:39:40.691Z,6.8
2024-03-10T02:40:50.356Z,6.8
2024-03-10T02:41:59.946Z,6.8
2024-03-10T02:43:15.154Z,6.8
2024-03-10T02:44:24.967Z,6.8
2024-03-10T02:45:34.763Z,6.8
2024-03-10T02:46:44.564Z,6.8
2024-03-10T02:47:54.335Z,6.8
2024-03-10T02:48:59.117Z,6.7
2024-03-10T02:50:03.903Z,6.7
2024-03-10T02:51:08.847Z,6.7
2024-03-10T02:52:13.601Z,6.7
2024-03-10T02:53:18.373Z,6.7
2024-03-10T02:54:23.275Z,6.7
2024-03-10T02:55:27.952Z,6.7
2024-03-10T02:56:32.841Z,6.7
2024-03-10T02:57:37.515Z,6.7
2024-03-10T02:58:42.369Z,6.6
2024-03-10T02:59:47.237Z,6.6
2024-03-10T03:00:52.025Z,6.6
2024-03-10T03:01:56.798Z,6.6
2024-03-10T03:03:01.638Z,6.6
2024-03-10T03:04:06.482Z,6.6
2024-03-10T03:05:11.391Z,6.6
2024-03-10T03:06:16.617Z,6.6
2024-03-10T03:07:21.478Z,6.6
2024-03-10T03:08:26.402Z,6.6
2024-03-10T03:09:31.156Z,6.5
2024-03-10T03:10:35.963Z,6.6
2024-03-10T03:11:40.665Z,6.5
2024-03-10T03:12:45.492Z,6.5
2024-03-10T03:13:50.382Z,6.4
2024-03-10T03:14:54.975Z,6.4
2024-03-10T03:16:02.802Z,6.5
2024-03-10T03:17:07.788Z,6.5
2024-03-10T03:18:12.609Z,6.5
2024-03-10T03:19:17.294Z,6.5
2024-03-10T03:20:22.158Z,6.5
2024-03-10T03:21:26.800Z,6.5
2024-03-10T03:22:31.553Z,6.5
2024-03-10T03:23:39.118Z,6.5
2024-03-10T03:24:46.744Z,6.5
2024-03-10T03:25:51.483Z,6.5
2024-03-10T03:26:56.261Z,6.5
2024-03-10T03:28:01.004Z,6.5
2024-03-10T03:29:05.812Z,6.5
2024-03-10T03:30:10.555Z,6.5
2024-03-10T03:31:15.384Z,6.5
2024-03-10T03:32:20.047Z,6.5
2024-03-10T03:33:24.877Z,6.5
2024-03-10T03:34:29.607Z,6.5
2024-03-10T03:35:34.389Z,6.5
2024-03-10T03:36:39.227Z,6.5
2024-03-10T03:37:43.994Z,6.5
2024-03-10T03:38:48.721Z,6.5
2024-03-10T03:39:53.449Z,6.5
2024-03-10T03:40:58.329Z,6.5
2024-03-10T03:42:03.130Z,6.4
2024-03-10T03:43:07.865Z,6.4
2024-03-10T03:44:12.671Z,6.4
2024-03-10T03:45:20.313Z,6.4
2024-03-10T03:46:25.131Z,6.4
2024-03-10T03:47:29.808Z,6.4
2024-03-10T03:48:34.520Z,6.4
2024-03-10T03:49:39.273Z,6.3
2024-03-10T03:50:44.044Z,6.4
2024-03-10T03:51:49.055Z,6.4
2024-03-10T03:52:53.871Z,6.4
2024-03-10T03:53:58.505Z,6.4
2024-03-10T03:55:03.298Z,6.4
2024-03-10T03:56:08.156Z,6.4
2024-03-10T03:57:15.505Z,6.3
2024-03-10T03:58:20.256Z,6.3
2024-03-10T03:59:25.053Z,6.3
2024-03-10T04:00:29.689Z,6.4
2024-03-10T04:01:34.720Z,6.3
2024-03-10T04:02:39.428Z,6.4
2024-03-10T04:03:44.135Z,6.4
2024-03-10T04:04:49.258Z,6.4
2024-03-10T04:05:54.231Z,6.3
2024-03-10T04:06:59.213Z,6.3
2024-03-10T04:08:04.378Z,6.3
2024-03-10T04:09:09.526Z,6.3
2024-03-10T04:10:15.391Z,6.3
2024-03-10T04:11:18.576Z,6.3
2024-03-10T04:12:21.595Z,6.3
2024-03-10T04:13:24.351Z,6.3
2024-03-10T04:14:27.369Z,6.3
2024-03-10T04:15:30.277Z,6.3
2024-03-10T04:17:02.256Z,6.3
2024-03-10T04:18:17.214Z,6.3
2024-03-10T04:19:22.537Z,6.3
2024-03-10T04:20:25.544Z,6.3
2024-03-10T04:21:28.419Z,6.3
2024-03-10T04:22:45.806Z,6.3
2024-03-10T04:23:50.878Z,6.3
2024-03-10T04:24:53.878Z,6.3
2024-03-10T04:25:58.605Z,6.3
2024-03-10T04:27:03.336Z,6.3
2024-03-10T04:28:08.100Z,6.3
2024-03-10T04:29:13.138Z,6.3
2024-03-10T04:30:17.541Z,6.2
2024-03-10T04:31:22.442Z,6.2
2024-03-10T04:32:27.327Z,6.2
2024-03-10T04:33:31.872Z,6.2
2024-03-10T04:34:36.588Z,6.2
2024-03-10T04:35:41.381Z,6.2
2024-03-10T04:36:46.051Z,6.2
2024-03-10T04:37:50.820Z,6.2
2024-03-10T04:38:55.527Z,6.3
2024-03-10T04:40:00.353Z,6.3
2024-03-10T04:41:07.661Z,6.3
2024-03-10T04:42:12.402Z,6.2
2024-03-10T04:43:19.092Z,6.2
2024-03-10T04:44:22.026Z,6.2
2024-03-10T04:45:26.693Z,6.2
2024-03-10T04:46:31.498Z,6.2
2024-03-10T04:47:36.297Z,6.2
2024-03-10T04:48:40.859Z,6.2
2024-03-10T04:49:45.715Z,6.2
2024-03-10T04:50:50.349Z,6.2
2024-03-10T04:51:55.122Z,6.2
2024-03-10T04:52:59.966Z,6.2
2024-03-10T04:54:04.671Z,6.2
2024-03-10T04:55:09.354Z,6.2
2024-03-10T04:56:14.451Z,6.2
2024-03-10T04:57:19.049Z,6.2
2024-03-10T04:58:26.399Z,6.2
2024-03-10T04:59:31.299Z,6.2
2024-03-10T05:00:38.682Z,6.1
2024-03-10T05:01:40.625Z,6.2
2024-03-10T05:02:45.436Z,6.2
2024-03-10T05:03:50.103Z,6.2
2024-03-10T05:04:54.915Z,6.1
2024-03-10T05:05:59.696Z,6.2
2024-03-10T05:07:04.503Z,6.2
2024-03-10T05:08:09.249Z,6.2
2024-03-10T05:09:13.902Z,6.2
2024-03-10T05:10:18.672Z,6.2
2024-03-10T05:11:26.404Z,6.2
2024-03-10T05:12:31.122Z,6.2
2024-03-10T05:13:35.843Z,6.2
2024-03-10T05:14:40.594Z,6.2
2024-03-10T05:15:45.431Z,6.2
2024-03-10T05:16:50.201Z,6.2
2024-03-10T05:17:57.637Z,6.2
2024-03-10T05:19:02.432Z,6.2
2024-03-10T05:20:07.159Z,6.2
2024-03-10T05:21:12.007Z,6.3
2024-03-10T05:22:16.902Z,6.3
2024-03-10T05:23:21.720Z,6.2
2024-03-10T05:24:26.458Z,6.3
2024-03-10T05:25:34.090Z,6.3
2024-03-10T05:26:38.938Z,6.2
2024-03-10T05:27:43.777Z,6.3
2024-03-10T05:28:48.522Z,6.3
2024-03-10T05:29:53.285Z,6.3
2024-03-10T05:30:58.054Z,6.3
2024-03-10T05:32:02.881Z,6.3
2024-03-10T05:33:07.829Z,6.3
2024-03-10T05:34:12.499Z,6.3
2024-03-10T05:35:20.505Z,6.3
2024-03-10T05:36:25.347Z,6.4
2024-03-10T05:37:30.246Z,6.4
2024-03-10T05:38:37.937Z,6.4
2024-03-10T05:39:42.832Z,6.3
2024-03-10T05:40:47.785Z,6.4
2024-03-10T05:41:52.622Z,6.4
2024-03-10T05:42:57.666Z,6.4
2024-03-10T05:44:02.537Z,6.4
2024-03-10T05:45:07.615Z,6.4
2024-03-10T05:46:12.732Z,6.5
2024-03-10T05:47:17.656Z,6.5
2024-03-10T05:48:22.668Z,6.4
2024-03-10T05:49:27.364Z,6.5
2024-03-10T05:50:32.285Z,6.5
2024-03-10T05:51:37.159Z,6.5
2024-03-10T05:52:42.092Z,6.5
2024-03-10T05:53:47.036Z,6.5
2024-03-10T05:54:51.918Z,6.5
2024-03-10T05:55:56.852Z,6.5
2024-03-10T05:57:01.735Z,6.5
2024-03-10T05:58:06.739Z,6.6
2024-03-10T05:59:11.704Z,6.6
2024-03-10T06:00:16.778Z,6.6
2024-03-10T06:01:21.732Z,6.6
2024-03-10T06:02:26.664Z,6.6
2024-03-10T06:03:31.509Z,6.6
2024-03-10T06:04:36.454Z,6.6
2024-03-10T06:05:44.367Z,6.6
2024-03-10T06:06:49.249Z,6.5
2024-03-10T06:07:54.262Z,6.5
2024-03-10T06:08:59.132Z,6.6
2024-03-10T06:10:03.994Z,6.6
2024-03-10T06:11:08.991Z,6.6
2024-03-10T06:12:13.771Z,6.6
2024-03-10T06:13:18.488Z,6.6
2024-03-10T06:14:23.302Z,6.6
2024-03-10T06:15:28.089Z,6.6
2024-03-10T06:16:32.833Z,6.7
2024-03-10T06:17:37.800Z,6.7
2024-03-10T06:18:42.533Z,6.7
2024-03-10T06:19:52.201Z,6.7
2024-03-10T06:21:01.889Z,6.7
2024-03-10T06:22:11.401Z,6.7
2024-03-10T06:23:21.167Z,6.7
2024-03-10T06:24:30.895Z,6.7
2024-03-10T06:25:40.629Z,6.7
2024-03-10T06:26:46.006Z,6.8
2024-03-10T06:27:50.233Z,6.8
2024-03-10T06:28:55.171Z,6.8
2024-03-10T06:29:59.906Z,6.8
2024-03-10T06:31:04.666Z,6.9
2024-03-10T06:32:09.402Z,6.9
2024-03-10T06:33:14.239Z,6.9
2024-03-10T06:34:21.915Z,6.9
2024-03-10T06:35:23.913Z,6.9
2024-03-10T06:36:28.603Z,6.9
2024-03-10T06:37:33.437Z,7
2024-03-10T06:38:38.281Z,7
2024-03-10T06:39:45.927Z,7
2024-03-10T06:40:50.669Z,7.1
2024-03-10T06:41:55.337Z,7.1
2024-03-10T06:43:00.295Z,7.1
2024-03-10T06:44:05.029Z,7.1
2024-03-10T06:45:09.755Z,7.1
2024-03-10T06:46:14.741Z,7.1
2024-03-10T06:47:19.553Z,7.2
2024-03-10T06:48:24.265Z,7.2
2024-03-10T06:49:29.113Z,7.2
2024-03-10T06:50:33.987Z,7.2
2024-03-10T06:51:38.645Z,7.3
2024-03-10T06:52:43.365Z,7.3
2024-03-10T06:53:48.255Z,7.3
2024-03-10T06:54:53.278Z,7.4
2024-03-10T06:55:58.232Z,7.4
2024-03-10T06:57:03.168Z,7.4
2024-03-10T06:58:08.458Z,7.4
2024-03-10T06:59:13.404Z,7.5
2024-03-10T07:00:18.217Z,7.5
2024-03-10T07:01:23.273Z,7.5
2024-03-10T07:02:28.397Z,7.5
2024-03-10T07:03:33.139Z,7.5
2024-03-10T07:04:37.994Z,7.6
2024-03-10T07:05:42.862Z,7.7
2024-03-10T07:06:47.797Z,7.7
2024-03-10T07:07:52.748Z,7.8
2024-03-10T07:08:57.692Z,7.8
2024-03-10T07:10:02.539Z,7.9
2024-03-10T07:11:07.753Z,7.9
2024-03-10T07:12:12.610Z,7.9
2024-03-10T07:13:17.316Z,7.9
2024-03-10T07:14:22.274Z,8
2024-03-10T07:15:27.204Z,8
2024-03-10T07:16:32.094Z,8.1
2024-03-10T07:17:37.160Z,8.1
2024-03-10T07:18:44.662Z,8.1
2024-03-10T07:19:49.575Z,8.2
2024-03-10T07:20:54.466Z,8.1
2024-03-10T07:21:59.319Z,8.3
2024-03-10T07:23:04.287Z,8.3
2024-03-10T07:24:09.313Z,8.4
2024-03-10T07:25:14.213Z,8.4
2024-03-10T07:26:19.236Z,8.5
2024-03-10T07:27:24.369Z,8.5
2024-03-10T07:28:31.994Z,8.6
2024-03-10T07:29:36.990Z,8.6
2024-03-10T07:30:45.053Z,8.7
2024-03-10T07:31:50.099Z,8.7
2024-03-10T07:32:55.038Z,8.7
2024-03-10T07:33:59.988Z,8.7
2024-03-10T07:35:04.991Z,8.8
2024-03-10T07:36:10.033Z,8.8
2024-03-10T07:37:14.893Z,8.8
2024-03-10T07:38:19.809Z,8.8
2024-03-10T07:39:24.787Z,9
2024-03-10T07:40:29.618Z,9.1
2024-03-10T07:41:34.789Z,9.1
2024-03-10T07:42:42.313Z,9.2
2024-03-10T07:43:47.261Z,9.3
2024-03-10T07:44:52.253Z,9.2
2024-03-10T07:45:57.195Z,9.2
2024-03-10T07:47:02.226Z,9.3
2024-03-10T07:48:07.524Z,9.4
2024-03-10T07:49:12.088Z,9.4
2024-03-10T07:50:17.074Z,9.5
2024-03-10T07:51:22.081Z,9.5
2024-03-10T07:52:27.071Z,9.5
2024-03-10T07:53:32.218Z,9.6
2024-03-10T07:54:36.931Z,9.6
2024-03-10T07:55:41.846Z,9.7
2024-03-10T07:56:46.868Z,9.7
2024-03-10T07:57:51.832Z,9.8
2024-03-10T07:58:56.881Z,9.8
2024-03-10T08:00:01.787Z,9.9
2024-03-10T08:01:06.791Z,9.9
2024-03-10T08:02:11.871Z,10
2024-03-10T08:03:16.790Z,10
2024-03-10T08:04:21.770Z,10.1
2024-03-10T08:05:26.840Z,10.1
2024-03-10T08:06:31.718Z,10.2
2024-03-10T08:07:36.614Z,10.2
2024-03-10T08:08:44.779Z,10.3
2024-03-10T08:09:52.752Z,10.3
2024-03-10T08:10:57.748Z,10.3
2024-03-10T08:12:02.690Z,10.3
2024-03-10T08:13:07.726Z,10.3
2024-03-10T08:14:12.658Z,10.3
2024-03-10T08:15:20.493Z,10.3
2024-03-10T08:16:25.255Z,10.4
2024-03-10T08:17:30.512Z,10.5
2024-03-10T08:18:35.171Z,10.5
2024-03-10T08:19:40.077Z,10.5
2024-03-10T08:20:45.117Z,10.6
2024-03-10T08:21:49.975Z,10.6
2024-03-10T08:22:54.963Z,10.6
2024-03-10T08:23:59.859Z,10.6
2024-03-10T08:25:04.764Z,10.7
2024-03-10T08:26:09.823Z,10.7
2024-03-10T08:27:14.700Z,10.7
2024-03-10T08:28:19.664Z,10.8
2024-03-10T08:29:24.684Z,10.8
2024-03-10T08:30:29.503Z,10.9
2024-03-10T08:31:34.543Z,10.9
2024-03-10T08:32:39.707Z,10.9
2024-03-10T08:33:47.052Z,11
2024-03-10T08:34:52.348Z,11.1
2024-03-10T08:35:57.372Z,11.1
2024-03-10T08:37:02.324Z,11.1
2024-03-10T08:38:07.309Z,11.1
2024-03-10T08:39:12.164Z,11.2
2024-03-10T08:40:17.098Z,11.3
2024-03-10T08:41:22.097Z,11.4
2024-03-10T08:42:27.037Z,11.4
2024-03-10T08:43:31.982Z,11.4
2024-03-10T08:44:36.977Z,11.4
2024-03-10T08:45:41.851Z,11.5
2024-03-10T08:46:46.763Z,11.6
2024-03-10T08:47:51.727Z,11.6
2024-03-10T08:48:56.612Z,11.6
2024-03-10T08:50:01.576Z,11.7
2024-03-10T08:51:06.713Z,11.8
2024-03-10T08:52:11.441Z,11.8
2024-03-10T08:53:16.360Z,11.8
2024-03-10T08:54:21.240Z,11.8
2024-03-10T08:55:26.115Z,11.8
2024-03-10T08:56:31.165Z,11.8
2024-03-10T08:57:36.213Z,11.8
2024-03-10T08:58:41.137Z,11.8
2024-03-10T08:59:48.940Z,11.8
2024-03-10T09:00:53.870Z,11.9
2024-03-10T09:01:58.801Z,11.9
2024-03-10T09:03:06.700Z,12
2024-03-10T09:04:11.594Z,12
2024-03-10T09:05:16.547Z,12
2024-03-10T09:06:21.474Z,12.1
2024-03-10T09:07:26.356Z,12.1
2024-03-10T09:08:32.288Z,12.1
2024-03-10T09:09:37.121Z,12.1
2024-03-10T09:10:48.834Z,12.1
2024-03-10T09:11:49.698Z,12.1
2024-03-10T09:12:54.638Z,12.1
2024-03-10T09:13:59.623Z,12.1
2024-03-10T09:15:05.971Z,12.1
2024-03-10T09:16:11.304Z,12.1
2024-03-10T09:17:18.952Z,12
2024-03-10T09:18:21.253Z,12.1
2024-03-10T09:19:26.221Z,12.1
2024-03-10T09:20:31.214Z,12.1
2024-03-10T09:21:36.270Z,12.1
2024-03-10T09:22:41.390Z,12.1
2024-03-10T09:23:46.339Z,12.1
2024-03-10T09:24:51.311Z,12.1
2024-03-10T09:25:56.463Z,12.1
2024-03-10T09:27:01.326Z,12.1
2024-03-10T09:28:06.239Z,12.2
2024-03-10T09:29:11.253Z,12.2
2024-03-10T09:30:16.049Z,12.3
2024-03-10T09:31:20.984Z,12.3
2024-03-10T09:32:25.967Z,12.4
2024-03-10T09:33:30.944Z,12.4
2024-03-10T09:34:35.822Z,12.4
2024-03-10T09:35:41.053Z,12.4
2024-03-10T09:36:46.071Z,12.5
2024-03-10T09:37:50.951Z,12.5
2024-03-10T09:38:55.883Z,12.5
2024-03-10T09:40:00.925Z,12.5
2024-03-10T09:41:05.919Z,12.6
2024-03-10T09:42:11.113Z,12.6
2024-03-10T09:43:15.981Z,12.7
2024-03-10T09:44:20.893Z,12.7
2024-03-10T09:45:26.066Z,12.8
2024-03-10T09:46:30.972Z,12.8
2024-03-10T09:47:36.037Z,12.9
2024-03-10T09:48:40.818Z,12.8
2024-03-10T09:49:48.948Z,12.8
2024-03-10T09:50:53.580Z,12.9
2024-03-10T09:51:58.684Z,12.9
2024-03-10T09:53:03.399Z,12.9
2024-03-10T09:54:08.290Z,13
2024-03-10T09:55:13.189Z,13
2024-03-10T09:56:18.157Z,13
2024-03-10T09:57:23.045Z,13
2024-03-10T09:58:33.721Z,13.1
2024-03-10T09:59:37.873Z,13
2024-03-10T10:00:45.683Z,13.1
2024-03-10T10:01:50.601Z,13.1
2024-03-10T10:02:55.403Z,13.2
2024-03-10T10:04:03.269Z,13.2
2024-03-10T10:05:08.224Z,13.3
2024-03-10T10:06:13.177Z,13.3
2024-03-10T10:07:18.170Z,13.3
2024-03-10T10:08:23.017Z,13.4
2024-03-10T10:09:27.944Z,13.4
2024-03-10T10:10:32.823Z,13.3
2024-03-10T10:11:37.748Z,13.3
2024-03-10T10:12:42.517Z,13.3
2024-03-10T10:13:47.429Z,13.4
2024-03-10T10:14:52.663Z,13.4
2024-03-10T10:15:57.632Z,13.4
2024-03-10T10:17:02.605Z,13.3
2024-03-10T10:18:07.628Z,13.3
2024-03-10T10:19:12.569Z,13.4
2024-03-10T10:20:17.539Z,13.4
2024-03-10T10:21:22.435Z,13.4
2024-03-10T10:22:27.353Z,13.4
2024-03-10T10:23:32.426Z,13.4
2024-03-10T10:24:37.341Z,13.4
2024-03-10T10:25:42.256Z,13.4
2024-03-10T10:26:47.132Z,13.4
2024-03-10T10:27:59.837Z,13.4
2024-03-10T10:29:04.809Z,13.4
2024-03-10T10:30:09.693Z,13.4
2024-03-10T10:31:14.613Z,13.4
2024-03-10T10:32:19.667Z,13.5
2024-03-10T10:33:26.252Z,13.5
2024-03-10T10:34:31.275Z,13.4
2024-03-10T10:35:36.463Z,13.5
2024-03-10T10:36:44.254Z,13.5
2024-03-10T10:37:49.331Z,13.5
2024-03-10T10:38:57.026Z,13.5
2024-03-10T10:40:02.051Z,13.5
2024-03-10T10:41:07.363Z,13.5
2024-03-10T10:42:12.834Z,13.5
2024-03-10T10:43:17.325Z,13.6
2024-03-10T10:44:22.335Z,13.6
2024-03-10T10:45:27.265Z,13.7
2024-03-10T10:46:35.166Z,13.6
2024-03-10T10:47:40.155Z,13.7
2024-03-10T10:48:45.117Z,13.8
2024-03-10T10:49:50.039Z,13.8
2024-03-10T10:50:54.990Z,13.8
2024-03-10T10:51:59.908Z,13.8
2024-03-10T10:53:05.069Z,13.9
2024-03-10T10:54:09.976Z,13.9
2024-03-10T10:55:14.845Z,13.9
2024-03-10T10:56:19.881Z,13.9
2024-03-10T10:57:25.030Z,13.9
2024-03-10T10:58:29.905Z,14
2024-03-10T10:59:34.879Z,13.9
2024-03-10T11:00:39.908Z,13.9
2024-03-10T11:01:46.817Z,14
2024-03-10T11:02:49.662Z,14
2024-03-10T11:03:54.605Z,14
2024-03-10T11:05:02.378Z,14
2024-03-10T11:06:07.661Z,13.9
2024-03-10T11:07:12.260Z,13.9
2024-03-10T11:08:17.384Z,14
2024-03-10T11:09:22.243Z,13.9
2024-03-10T11:10:30.266Z,13.9
2024-03-10T11:11:42.972Z,13.8
2024-03-10T11:12:47.808Z,13.7
2024-03-10T11:13:54.714Z,13.8
2024-03-10T11:14:57.801Z,13.8
2024-03-10T11:16:02.742Z,13.8
2024-03-10T11:17:15.432Z,13.9
2024-03-10T11:18:23.326Z,13.9
2024-03-10T11:19:30.929Z,13.8
2024-03-10T11:20:35.935Z,13.7
2024-03-10T11:21:40.822Z,13.7
2024-03-10T11:22:45.736Z,13.7
2024-03-10T11:23:55.622Z,13.7
2024-03-10T11:25:00.407Z,13.8
2024-03-10T11:26:08.949Z,13.8
2024-03-10T11:27:13.773Z,13.9
2024-03-10T11:28:21.537Z,13.9
2024-03-10T11:29:31.509Z,13.9
2024-03-10T11:30:36.298Z,13.9
2024-03-10T11:31:41.185Z,13.9
2024-03-10T11:32:46.246Z,13.9
2024-03-10T11:33:51.067Z,13.9
2024-03-10T11:34:56.175Z,14
2024-03-10T11:36:01.173Z,13.9
2024-03-10T11:37:06.310Z,14
2024-03-10T11:38:11.326Z,14
2024-03-10T11:39:16.030Z,14
2024-03-10T11:40:25.754Z,14
2024-03-10T11:41:30.770Z,14
2024-03-10T11:42:35.581Z,14
2024-03-10T11:43:40.570Z,14
2024-03-10T11:44:48.203Z,13.9
2024-03-10T11:45:53.241Z,14
2024-03-10T11:46:58.315Z,14.1
2024-03-10T11:48:03.448Z,14.1
2024-03-10T11:49:08.551Z,14.1
2024-03-10T11:50:13.495Z,14.2
2024-03-10T11:51:18.425Z,14.1
2024-03-10T11:52:23.265Z,14.2
2024-03-10T11:53:28.355Z,14.1
2024-03-10T11:54:33.143Z,14.1
2024-03-10T11:55:37.993Z,14.1
2024-03-10T11:56:42.938Z,14.1
2024-03-10T11:57:47.957Z,14.1
2024-03-10T11:58:59.282Z,14.1
2024-03-10T12:00:03.913Z,14
2024-03-10T12:01:09.135Z,14
2024-03-10T12:02:14.271Z,14.1
2024-03-10T12:03:19.164Z,14.1
2024-03-10T12:04:24.084Z,14
2024-03-10T12:05:29.005Z,13.9
2024-03-10T12:06:33.866Z,13.9
2024-03-10T12:07:38.783Z,14
2024-03-10T12:08:46.991Z,14.1
2024-03-10T12:09:51.943Z,14.1
2024-03-10T12:10:59.682Z,14.1
2024-03-10T12:12:04.590Z,14.1
2024-03-10T12:13:14.381Z,14.1
2024-03-10T12:14:22.181Z,14.1
2024-03-10T12:15:27.120Z,14.1
2024-03-10T12:16:31.993Z,14.1
2024-03-10T12:17:36.942Z,14.1
2024-03-10T12:18:41.841Z,14.1
2024-03-10T12:19:49.497Z,14.1
2024-03-10T12:20:54.400Z,14.1
2024-03-10T12:21:59.391Z,14.1
2024-03-10T12:23:04.379Z,14.1
2024-03-10T12:24:12.443Z,14
2024-03-10T12:25:17.578Z,14
2024-03-10T12:26:25.385Z,14
2024-03-10T12:27:30.207Z,14
2024-03-10T12:28:35.137Z,14
2024-03-10T12:29:40.205Z,14.1
2024-03-10T12:30:50.232Z,14
2024-03-10T12:31:56.138Z,14
2024-03-10T12:32:59.989Z,14.1
2024-03-10T12:34:05.041Z,14
2024-03-10T12:35:09.983Z,13.9
2024-03-10T12:36:14.876Z,13.9
2024-03-10T12:37:21.178Z,13.9
2024-03-10T12:38:27.686Z,13.9
2024-03-10T12:39:32.605Z,14
2024-03-10T12:40:37.774Z,14
2024-03-10T12:41:42.783Z,14.1
2024-03-10T12:42:47.642Z,14.1
2024-03-10T12:43:52.632Z,14
2024-03-10T12:44:57.672Z,14
2024-03-10T12:46:02.660Z,14.1
2024-03-10T12:47:07.915Z,14.2
2024-03-10T12:48:12.877Z,14.1
2024-03-10T12:49:17.803Z,14.1
2024-03-10T12:50:22.895Z,14.2
2024-03-10T12:51:27.765Z,14.2
2024-03-10T12:52:32.724Z,14.3
2024-03-10T12:53:37.555Z,14.3
2024-03-10T12:54:42.456Z,14.4
2024-03-10T12:55:47.503Z,14.4
2024-03-10T12:56:52.404Z,14.5
2024-03-10T12:57:57.346Z,14.6
2024-03-10T12:59:02.353Z,14.6
2024-03-10T13:00:07.340Z,14.6
2024-03-10T13:01:17.390Z,14.7
2024-03-10T13:02:22.274Z,14.6
2024-03-10T13:03:27.292Z,14.5
2024-03-10T13:04:32.357Z,14.6
2024-03-10T13:05:37.237Z,14.6
2024-03-10T13:06:42.148Z,14.6
2024-03-10T13:07:47.033Z,14.6
2024-03-10T13:08:52.034Z,14.6
2024-03-10T13:09:57.120Z,14.6
2024-03-10T13:11:02.266Z,14.4
2024-03-10T13:12:07.293Z,14.5
2024-03-10T13:13:12.201Z,14.5
2024-03-10T13:14:17.116Z,14.5
2024-03-10T13:15:24.979Z,14.6
2024-03-10T13:16:32.489Z,14.6
2024-03-10T13:17:37.743Z,14.5
2024-03-10T13:18:45.407Z,14.5
2024-03-10T13:19:50.267Z,14.5
2024-03-10T13:20:55.219Z,14.5
2024-03-10T13:22:00.173Z,14.5
2024-03-10T13:23:05.109Z,14.5
2024-03-10T13:24:09.999Z,14.6
2024-03-10T13:25:14.912Z,14.5
2024-03-10T13:26:19.837Z,14.6
2024-03-10T13:27:24.749Z,14.5
2024-03-10T13:28:29.682Z,14.6
2024-03-10T13:29:34.693Z,14.7
2024-03-10T13:30:39.655Z,14.6
2024-03-10T13:31:44.571Z,14.5
2024-03-10T13:32:49.847Z,14.6
2024-03-10T13:33:54.796Z,14.5
2024-03-10T13:34:59.733Z,14.4
2024-03-10T13:36:14.085Z,14.5
2024-03-10T13:37:15.213Z,14.4
2024-03-10T13:38:20.289Z,14.4
2024-03-10T13:39:25.138Z,14.4
2024-03-10T13:40:30.038Z,14.5
2024-03-10T13:41:35.380Z,14.4
2024-03-10T13:42:40.311Z,14.3
2024-03-10T13:43:48.175Z,14.4
2024-03-10T13:44:53.095Z,14.3
2024-03-10T13:45:58.218Z,14.4
2024-03-10T13:47:03.259Z,14.3
2024-03-10T13:48:08.248Z,14.3
2024-03-10T13:49:13.115Z,14.3
2024-03-10T13:50:18.080Z,14.3
2024-03-10T13:51:22.999Z,14.3
2024-03-10T13:52:30.480Z,14.2
2024-03-10T13:53:35.416Z,14.2
2024-03-10T13:54:40.136Z,14.3
2024-03-10T13:55:48.080Z,14.2
2024-03-10T13:56:52.952Z,14.2
2024-03-10T13:57:57.948Z,14.2
2024-03-10T13:59:02.736Z,14.2
2024-03-10T14:00:07.450Z,14.2
2024-03-10T14:01:17.236Z,14.2
2024-03-10T14:02:21.998Z,14.1
2024-03-10T14:03:29.589Z,14.1
2024-03-10T14:04:34.452Z,14.2
2024-03-10T14:05:39.305Z,14.2
2024-03-10T14:06:43.948Z,14.2
2024-03-10T14:07:48.971Z,14.2
2024-03-10T14:08:53.539Z,14.2
2024-03-10T14:09:58.414Z,14.2
2024-03-10T14:11:03.209Z,14.2
2024-03-10T14:12:08.054Z,14.2
2024-03-10T14:13:12.817Z,14.3
2024-03-10T14:14:17.597Z,14.2
2024-03-10T14:15:22.414Z,14.2
2024-03-10T14:16:29.866Z,14.2
2024-03-10T14:17:34.729Z,14.2
2024-03-10T14:18:42.373Z,14.1
2024-03-10T14:19:47.096Z,14.1
2024-03-10T14:20:51.915Z,14.2
2024-03-10T14:21:59.577Z,14.2
2024-03-10T14:23:04.365Z,14.2
2024-03-10T14:24:09.178Z,14.1
2024-03-10T14:25:14.409Z,14.2
2024-03-10T14:26:18.723Z,14.2
2024-03-10T14:27:23.561Z,14.1
2024-03-10T14:28:28.251Z,14.2
2024-03-10T14:29:33.082Z,14.2
2024-03-10T14:30:37.787Z,14.1
2024-03-10T14:31:42.503Z,14.1
2024-03-10T14:32:48.936Z,14.1
2024-03-10T14:33:52.092Z,14
2024-03-10T14:34:56.820Z,14
2024-03-10T14:36:01.621Z,13.9
2024-03-10T14:37:06.433Z,14
2024-03-10T14:38:11.216Z,14
2024-03-10T14:39:15.949Z,14
2024-03-10T14:40:20.687Z,14
2024-03-10T14:41:25.525Z,14
2024-03-10T14:42:30.391Z,13.9
2024-03-10T14:43:35.385Z,13.9
2024-03-10T14:44:40.255Z,13.9
2024-03-10T14:45:45.019Z,13.9
2024-03-10T14:46:49.912Z,13.9
2024-03-10T14:47:54.808Z,13.8
2024-03-10T14:48:59.593Z,13.9
2024-03-10T14:50:04.357Z,13.8
2024-03-10T14:51:09.557Z,13.9